sensor_id;sensor_type;location;lat;lon;timestamp;pressure;altitude;pressure_sealevel;temperature
56286;BMP180;42191;47.562;9.686;2023-04-12T00:01:36;96532.00;;;13.20
56286;BMP180;42191;47.562;9.686;2023-04-12T00:04:02;96522.00;;;13.20
56286;BMP180;42191;47.562;9.686;2023-04-12T00:06:32;96527.00;;;13.10
56286;BMP180;42191;47.562;9.686;2023-04-12T00:08:59;96517.00;;;13.10
56286;BMP180;42191;47.562;9.686;2023-04-12T00:11:25;96515.00;;;13.10
56286;BMP180;42191;47.562;9.686;2023-04-12T00:13:55;96523.00;;;13.10
56286;BMP180;42191;47.562;9.686;2023-04-12T00:16:21;96530.00;;;13.10
56286;BMP180;42191;47.562;9.686;2023-04-12T00:18:47;96521.00;;;13.00
56286;BMP180;42191;47.562;9.686;2023-04-12T00:21:13;96524.00;;;13.00
56286;BMP180;42191;47.562;9.686;2023-04-12T00:23:46;96514.00;;;13.00
56286;BMP180;42191;47.562;9.686;2023-04-12T00:26:14;96478.00;;;13.00
56286;BMP180;42191;47.562;9.686;2023-04-12T00:28:41;96472.00;;;13.00
56286;BMP180;42191;47.562;9.686;2023-04-12T00:31:08;96464.00;;;13.00
56286;BMP180;42191;47.562;9.686;2023-04-12T00:33:34;96451.00;;;13.00
56286;BMP180;42191;47.562;9.686;2023-04-12T00:36:01;96452.00;;;13.00
56286;BMP180;42191;47.562;9.686;2023-04-12T00:38:27;96461.00;;;13.00
56286;BMP180;42191;47.562;9.686;2023-04-12T00:40:53;96459.00;;;13.00
56286;BMP180;42191;47.562;9.686;2023-04-12T00:43:19;96451.00;;;13.00
56286;BMP180;42191;47.562;9.686;2023-04-12T00:45:48;96452.00;;;13.00
56286;BMP180;42191;47.562;9.686;2023-04-12T00:48:15;96455.00;;;13.00
56286;BMP180;42191;47.562;9.686;2023-04-12T00:50:42;96454.00;;;13.00
56286;BMP180;42191;47.562;9.686;2023-04-12T00:53:12;96450.00;;;13.00
56286;BMP180;42191;47.562;9.686;2023-04-12T00:55:41;96439.00;;;13.00
56286;BMP180;42191;47.562;9.686;2023-04-12T00:58:08;96435.00;;;13.00
56286;BMP180;42191;47.562;9.686;2023-04-12T01:00:34;96433.00;;;12.90
56286;BMP180;42191;47.562;9.686;2023-04-12T01:03:00;96426.00;;;12.90
56286;BMP180;42191;47.562;9.686;2023-04-12T01:05:27;96440.00;;;12.90
56286;BMP180;42191;47.562;9.686;2023-04-12T01:08:18;96420.00;;;12.90
56286;BMP180;42191;47.562;9.686;2023-04-12T01:13:35;96408.00;;;12.90
56286;BMP180;42191;47.562;9.686;2023-04-12T01:18:42;96401.00;;;12.90
56286;BMP180;42191;47.562;9.686;2023-04-12T01:21:23;96387.00;;;12.90
56286;BMP180;42191;47.562;9.686;2023-04-12T01:24:13;96380.00;;;12.90
56286;BMP180;42191;47.562;9.686;2023-04-12T01:26:46;96384.00;;;12.80
56286;BMP180;42191;47.562;9.686;2023-04-12T01:29:15;96372.00;;;12.90
56286;BMP180;42191;47.562;9.686;2023-04-12T01:31:56;96367.00;;;12.80
56286;BMP180;42191;47.562;9.686;2023-04-12T01:34:25;96358.00;;;12.80
56286;BMP180;42191;47.562;9.686;2023-04-12T01:36:55;96361.00;;;12.80
56286;BMP180;42191;47.562;9.686;2023-04-12T01:39:22;96351.00;;;12.80
56286;BMP180;42191;47.562;9.686;2023-04-12T01:41:48;96351.00;;;12.80
56286;BMP180;42191;47.562;9.686;2023-04-12T01:44:15;96343.00;;;12.90
56286;BMP180;42191;47.562;9.686;2023-04-12T01:46:43;96354.00;;;12.80
56286;BMP180;42191;47.562;9.686;2023-04-12T01:49:12;96355.00;;;12.80
56286;BMP180;42191;47.562;9.686;2023-04-12T01:54:29;96341.00;;;12.80
56286;BMP180;42191;47.562;9.686;2023-04-12T01:56:59;96329.00;;;12.80
56286;BMP180;42191;47.562;9.686;2023-04-12T01:59:48;96310.00;;;12.80
56286;BMP180;42191;47.562;9.686;2023-04-12T02:02:14;96308.00;;;12.80
56286;BMP180;42191;47.562;9.686;2023-04-12T02:04:41;96300.00;;;12.70
56286;BMP180;42191;47.562;9.686;2023-04-12T02:07:07;96305.00;;;12.70
56286;BMP180;42191;47.562;9.686;2023-04-12T02:09:37;96285.00;;;12.70
56286;BMP180;42191;47.562;9.686;2023-04-12T02:12:04;96288.00;;;12.70
56286;BMP180;42191;47.562;9.686;2023-04-12T02:14:31;96295.00;;;12.70
56286;BMP180;42191;47.562;9.686;2023-04-12T02:16:57;96277.00;;;12.70
56286;BMP180;42191;47.562;9.686;2023-04-12T02:19:24;96291.00;;;12.70
56286;BMP180;42191;47.562;9.686;2023-04-12T02:21:50;96286.00;;;12.70
56286;BMP180;42191;47.562;9.686;2023-04-12T02:24:17;96279.00;;;12.70
56286;BMP180;42191;47.562;9.686;2023-04-12T02:26:43;96269.00;;;12.70
56286;BMP180;42191;47.562;9.686;2023-04-12T02:29:09;96272.00;;;12.70
56286;BMP180;42191;47.562;9.686;2023-04-12T02:31:36;96257.00;;;12.70
56286;BMP180;42191;47.562;9.686;2023-04-12T02:34:04;96263.00;;;12.70
56286;BMP180;42191;47.562;9.686;2023-04-12T02:36:30;96268.00;;;12.60
56286;BMP180;42191;47.562;9.686;2023-04-12T02:38:56;96270.00;;;12.60
56286;BMP180;42191;47.562;9.686;2023-04-12T02:41:23;96254.00;;;12.60
56286;BMP180;42191;47.562;9.686;2023-04-12T02:43:49;96254.00;;;12.60
56286;BMP180;42191;47.562;9.686;2023-04-12T02:46:22;96249.00;;;12.60
56286;BMP180;42191;47.562;9.686;2023-04-12T02:48:49;96240.00;;;12.60
56286;BMP180;42191;47.562;9.686;2023-04-12T02:51:15;96236.00;;;12.60
56286;BMP180;42191;47.562;9.686;2023-04-12T02:53:41;96236.00;;;12.60
56286;BMP180;42191;47.562;9.686;2023-04-12T02:56:08;96222.00;;;12.60
56286;BMP180;42191;47.562;9.686;2023-04-12T02:58:35;96227.00;;;12.60
56286;BMP180;42191;47.562;9.686;2023-04-12T03:01:01;96229.00;;;12.60
56286;BMP180;42191;47.562;9.686;2023-04-12T03:03:33;96231.00;;;12.60
56286;BMP180;42191;47.562;9.686;2023-04-12T03:05:59;96211.00;;;12.60
56286;BMP180;42191;47.562;9.686;2023-04-12T03:08:25;96222.00;;;12.60
56286;BMP180;42191;47.562;9.686;2023-04-12T03:10:51;96217.00;;;12.60
56286;BMP180;42191;47.562;9.686;2023-04-12T03:13:17;96215.00;;;12.60
56286;BMP180;42191;47.562;9.686;2023-04-12T03:15:45;96203.00;;;12.60
56286;BMP180;42191;47.562;9.686;2023-04-12T03:18:11;96202.00;;;12.60
56286;BMP180;42191;47.562;9.686;2023-04-12T03:20:37;96197.00;;;12.60
56286;BMP180;42191;47.562;9.686;2023-04-12T03:23:08;96185.00;;;12.60
56286;BMP180;42191;47.562;9.686;2023-04-12T03:25:34;96169.00;;;12.60
56286;BMP180;42191;47.562;9.686;2023-04-12T03:28:02;96157.00;;;12.50
56286;BMP180;42191;47.562;9.686;2023-04-12T03:30:28;96153.00;;;12.50
56286;BMP180;42191;47.562;9.686;2023-04-12T03:32:54;96155.00;;;12.50
56286;BMP180;42191;47.562;9.686;2023-04-12T03:35:20;96160.00;;;12.50
56286;BMP180;42191;47.562;9.686;2023-04-12T03:37:46;96162.00;;;12.50
56286;BMP180;42191;47.562;9.686;2023-04-12T03:40:13;96153.00;;;12.50
56286;BMP180;42191;47.562;9.686;2023-04-12T03:42:39;96144.00;;;12.50
56286;BMP180;42191;47.562;9.686;2023-04-12T03:45:05;96149.00;;;12.50
56286;BMP180;42191;47.562;9.686;2023-04-12T03:47:32;96155.00;;;12.50
56286;BMP180;42191;47.562;9.686;2023-04-12T03:50:05;96153.00;;;12.40
56286;BMP180;42191;47.562;9.686;2023-04-12T03:52:32;96147.00;;;12.40
56286;BMP180;42191;47.562;9.686;2023-04-12T03:54:59;96147.00;;;12.40
56286;BMP180;42191;47.562;9.686;2023-04-12T03:57:25;96143.00;;;12.40
56286;BMP180;42191;47.562;9.686;2023-04-12T03:59:52;96141.00;;;12.40
56286;BMP180;42191;47.562;9.686;2023-04-12T04:02:18;96138.00;;;12.40
56286;BMP180;42191;47.562;9.686;2023-04-12T04:04:44;96144.00;;;12.40
56286;BMP180;42191;47.562;9.686;2023-04-12T04:07:11;96127.00;;;12.40
56286;BMP180;42191;47.562;9.686;2023-04-12T04:09:37;96131.00;;;12.40
56286;BMP180;42191;47.562;9.686;2023-04-12T04:12:03;96133.00;;;12.40
56286;BMP180;42191;47.562;9.686;2023-04-12T04:14:29;96135.00;;;12.40
56286;BMP180;42191;47.562;9.686;2023-04-12T04:16:57;96131.00;;;12.40
56286;BMP180;42191;47.562;9.686;2023-04-12T04:19:23;96139.00;;;12.40
56286;BMP180;42191;47.562;9.686;2023-04-12T04:21:49;96120.00;;;12.40
56286;BMP180;42191;47.562;9.686;2023-04-12T04:24:15;96124.00;;;12.40
56286;BMP180;42191;47.562;9.686;2023-04-12T04:26:43;96121.00;;;12.40
56286;BMP180;42191;47.562;9.686;2023-04-12T04:29:10;96113.00;;;12.40
56286;BMP180;42191;47.562;9.686;2023-04-12T04:31:36;96106.00;;;12.40
56286;BMP180;42191;47.562;9.686;2023-04-12T04:34:03;96107.00;;;12.40
56286;BMP180;42191;47.562;9.686;2023-04-12T04:36:33;96104.00;;;12.40
56286;BMP180;42191;47.562;9.686;2023-04-12T04:39:00;96099.00;;;12.40
56286;BMP180;42191;47.562;9.686;2023-04-12T04:41:26;96102.00;;;12.40
56286;BMP180;42191;47.562;9.686;2023-04-12T04:43:53;96091.00;;;12.40
56286;BMP180;42191;47.562;9.686;2023-04-12T04:46:19;96090.00;;;12.40
56286;BMP180;42191;47.562;9.686;2023-04-12T04:48:49;96094.00;;;12.40
56286;BMP180;42191;47.562;9.686;2023-04-12T04:51:16;96083.00;;;12.40
56286;BMP180;42191;47.562;9.686;2023-04-12T04:53:43;96088.00;;;12.40
56286;BMP180;42191;47.562;9.686;2023-04-12T04:56:09;96089.00;;;12.40
56286;BMP180;42191;47.562;9.686;2023-04-12T04:58:36;96071.00;;;12.40
56286;BMP180;42191;47.562;9.686;2023-04-12T05:01:02;96086.00;;;12.50
56286;BMP180;42191;47.562;9.686;2023-04-12T05:03:28;96083.00;;;12.50
56286;BMP180;42191;47.562;9.686;2023-04-12T05:05:55;96081.00;;;12.50
56286;BMP180;42191;47.562;9.686;2023-04-12T05:08:21;96067.00;;;12.50
56286;BMP180;42191;47.562;9.686;2023-04-12T05:10:51;96073.00;;;12.50
56286;BMP180;42191;47.562;9.686;2023-04-12T05:13:18;96076.00;;;12.50
56286;BMP180;42191;47.562;9.686;2023-04-12T05:15:44;96070.00;;;12.50
56286;BMP180;42191;47.562;9.686;2023-04-12T05:18:10;96075.00;;;12.50
56286;BMP180;42191;47.562;9.686;2023-04-12T05:20:40;96066.00;;;12.50
56286;BMP180;42191;47.562;9.686;2023-04-12T05:23:06;96072.00;;;12.50
56286;BMP180;42191;47.562;9.686;2023-04-12T05:25:32;96071.00;;;12.50
56286;BMP180;42191;47.562;9.686;2023-04-12T05:27:59;96075.00;;;12.50
56286;BMP180;42191;47.562;9.686;2023-04-12T05:30:25;96067.00;;;12.50
56286;BMP180;42191;47.562;9.686;2023-04-12T05:32:51;96069.00;;;12.50
56286;BMP180;42191;47.562;9.686;2023-04-12T05:35:18;96069.00;;;12.50
56286;BMP180;42191;47.562;9.686;2023-04-12T05:37:44;96069.00;;;12.60
56286;BMP180;42191;47.562;9.686;2023-04-12T05:40:10;96061.00;;;12.60
56286;BMP180;42191;47.562;9.686;2023-04-12T05:42:36;96058.00;;;12.60
56286;BMP180;42191;47.562;9.686;2023-04-12T05:45:03;96056.00;;;12.60
56286;BMP180;42191;47.562;9.686;2023-04-12T05:47:29;96052.00;;;12.60
56286;BMP180;42191;47.562;9.686;2023-04-12T05:49:55;96051.00;;;12.60
56286;BMP180;42191;47.562;9.686;2023-04-12T05:52:22;96044.00;;;12.60
56286;BMP180;42191;47.562;9.686;2023-04-12T05:54:48;96041.00;;;12.60
56286;BMP180;42191;47.562;9.686;2023-04-12T05:57:14;96051.00;;;12.70
56286;BMP180;42191;47.562;9.686;2023-04-12T05:59:41;96037.00;;;12.70
56286;BMP180;42191;47.562;9.686;2023-04-12T06:02:08;96031.00;;;12.70
56286;BMP180;42191;47.562;9.686;2023-04-12T06:04:35;96029.00;;;12.70
56286;BMP180;42191;47.562;9.686;2023-04-12T06:07:03;96033.00;;;12.70
56286;BMP180;42191;47.562;9.686;2023-04-12T06:09:30;96033.00;;;12.70
56286;BMP180;42191;47.562;9.686;2023-04-12T06:11:57;96026.00;;;12.70
56286;BMP180;42191;47.562;9.686;2023-04-12T06:14:23;96037.00;;;12.70
56286;BMP180;42191;47.562;9.686;2023-04-12T06:16:49;96024.00;;;12.70
56286;BMP180;42191;47.562;9.686;2023-04-12T06:19:15;96019.00;;;12.70
56286;BMP180;42191;47.562;9.686;2023-04-12T06:21:43;96014.00;;;12.70
56286;BMP180;42191;47.562;9.686;2023-04-12T06:24:09;96020.00;;;12.80
56286;BMP180;42191;47.562;9.686;2023-04-12T06:26:35;96006.00;;;12.80
56286;BMP180;42191;47.562;9.686;2023-04-12T06:29:02;96003.00;;;12.80
56286;BMP180;42191;47.562;9.686;2023-04-12T06:31:28;95987.00;;;12.80
56286;BMP180;42191;47.562;9.686;2023-04-12T06:33:54;95981.00;;;12.90
56286;BMP180;42191;47.562;9.686;2023-04-12T06:36:20;95987.00;;;12.90
56286;BMP180;42191;47.562;9.686;2023-04-12T06:38:46;95974.00;;;13.00
56286;BMP180;42191;47.562;9.686;2023-04-12T06:41:13;95972.00;;;13.00
56286;BMP180;42191;47.562;9.686;2023-04-12T06:43:39;95980.00;;;13.00
56286;BMP180;42191;47.562;9.686;2023-04-12T06:46:05;95966.00;;;13.10
56286;BMP180;42191;47.562;9.686;2023-04-12T06:48:33;95973.00;;;13.10
56286;BMP180;42191;47.562;9.686;2023-04-12T06:50:59;95965.00;;;13.10
56286;BMP180;42191;47.562;9.686;2023-04-12T06:53:26;95961.00;;;13.10
56286;BMP180;42191;47.562;9.686;2023-04-12T06:55:52;95958.00;;;13.10
56286;BMP180;42191;47.562;9.686;2023-04-12T06:58:18;95947.00;;;13.20
56286;BMP180;42191;47.562;9.686;2023-04-12T07:00:45;95936.00;;;13.20
56286;BMP180;42191;47.562;9.686;2023-04-12T07:03:11;95916.00;;;13.20
56286;BMP180;42191;47.562;9.686;2023-04-12T07:05:37;95931.00;;;13.20
56286;BMP180;42191;47.562;9.686;2023-04-12T07:08:04;95920.00;;;13.20
56286;BMP180;42191;47.562;9.686;2023-04-12T07:10:30;95925.00;;;13.20
56286;BMP180;42191;47.562;9.686;2023-04-12T07:12:57;95914.00;;;13.30
56286;BMP180;42191;47.562;9.686;2023-04-12T07:15:28;95904.00;;;13.30
56286;BMP180;42191;47.562;9.686;2023-04-12T07:17:54;95879.00;;;13.40
56286;BMP180;42191;47.562;9.686;2023-04-12T07:20:21;95880.00;;;13.50
56286;BMP180;42191;47.562;9.686;2023-04-12T07:22:47;95881.00;;;13.50
56286;BMP180;42191;47.562;9.686;2023-04-12T07:25:13;95870.00;;;13.60
56286;BMP180;42191;47.562;9.686;2023-04-12T07:27:39;95863.00;;;13.70
56286;BMP180;42191;47.562;9.686;2023-04-12T07:30:05;95871.00;;;13.70
56286;BMP180;42191;47.562;9.686;2023-04-12T07:32:32;95861.00;;;13.80
56286;BMP180;42191;47.562;9.686;2023-04-12T07:34:58;95859.00;;;13.90
56286;BMP180;42191;47.562;9.686;2023-04-12T07:37:24;95853.00;;;14.00
56286;BMP180;42191;47.562;9.686;2023-04-12T07:39:50;95848.00;;;14.10
56286;BMP180;42191;47.562;9.686;2023-04-12T07:42:16;95850.00;;;14.20
56286;BMP180;42191;47.562;9.686;2023-04-12T07:44:42;95864.00;;;14.30
56286;BMP180;42191;47.562;9.686;2023-04-12T07:47:08;95854.00;;;14.40
56286;BMP180;42191;47.562;9.686;2023-04-12T07:49:34;95845.00;;;14.50
56286;BMP180;42191;47.562;9.686;2023-04-12T07:52:00;95855.00;;;14.50
56286;BMP180;42191;47.562;9.686;2023-04-12T07:54:27;95834.00;;;14.60
56286;BMP180;42191;47.562;9.686;2023-04-12T07:56:58;95840.00;;;14.70
56286;BMP180;42191;47.562;9.686;2023-04-12T07:59:24;95827.00;;;14.70
56286;BMP180;42191;47.562;9.686;2023-04-12T08:01:51;95827.00;;;14.80
56286;BMP180;42191;47.562;9.686;2023-04-12T08:04:17;95833.00;;;14.90
56286;BMP180;42191;47.562;9.686;2023-04-12T08:06:43;95830.00;;;14.90
56286;BMP180;42191;47.562;9.686;2023-04-12T08:09:09;95821.00;;;15.00
56286;BMP180;42191;47.562;9.686;2023-04-12T08:11:35;95812.00;;;15.10
56286;BMP180;42191;47.562;9.686;2023-04-12T08:14:01;95801.00;;;15.20
56286;BMP180;42191;47.562;9.686;2023-04-12T08:16:27;95798.00;;;15.30
56286;BMP180;42191;47.562;9.686;2023-04-12T08:18:55;95801.00;;;15.40
56286;BMP180;42191;47.562;9.686;2023-04-12T08:21:21;95807.00;;;15.40
56286;BMP180;42191;47.562;9.686;2023-04-12T08:23:48;95811.00;;;15.50
56286;BMP180;42191;47.562;9.686;2023-04-12T08:26:16;95807.00;;;15.60
56286;BMP180;42191;47.562;9.686;2023-04-12T08:28:42;95809.00;;;15.70
56286;BMP180;42191;47.562;9.686;2023-04-12T08:31:08;95822.00;;;15.80
56286;BMP180;42191;47.562;9.686;2023-04-12T08:33:34;95813.00;;;15.90
56286;BMP180;42191;47.562;9.686;2023-04-12T08:36:00;95814.00;;;16.00
56286;BMP180;42191;47.562;9.686;2023-04-12T08:38:26;95810.00;;;16.10
56286;BMP180;42191;47.562;9.686;2023-04-12T08:40:52;95792.00;;;16.20
56286;BMP180;42191;47.562;9.686;2023-04-12T08:43:20;95789.00;;;16.30
56286;BMP180;42191;47.562;9.686;2023-04-12T08:45:47;95778.00;;;16.40
56286;BMP180;42191;47.562;9.686;2023-04-12T08:48:15;95775.00;;;16.50
56286;BMP180;42191;47.562;9.686;2023-04-12T08:50:43;95767.00;;;16.70
56286;BMP180;42191;47.562;9.686;2023-04-12T08:53:11;95771.00;;;16.80
56286;BMP180;42191;47.562;9.686;2023-04-12T08:55:37;95766.00;;;16.90
56286;BMP180;42191;47.562;9.686;2023-04-12T08:58:04;95757.00;;;17.00
56286;BMP180;42191;47.562;9.686;2023-04-12T09:03:01;95770.00;;;17.20
56286;BMP180;42191;47.562;9.686;2023-04-12T09:05:28;95770.00;;;17.30
56286;BMP180;42191;47.562;9.686;2023-04-12T09:07:55;95762.00;;;17.40
56286;BMP180;42191;47.562;9.686;2023-04-12T09:10:35;95768.00;;;17.50
56286;BMP180;42191;47.562;9.686;2023-04-12T09:13:03;95764.00;;;17.70
56286;BMP180;42191;47.562;9.686;2023-04-12T09:15:29;95760.00;;;17.90
56286;BMP180;42191;47.562;9.686;2023-04-12T09:18:09;95759.00;;;18.00
56286;BMP180;42191;47.562;9.686;2023-04-12T09:20:36;95762.00;;;18.20
56286;BMP180;42191;47.562;9.686;2023-04-12T09:23:22;95762.00;;;18.30
56286;BMP180;42191;47.562;9.686;2023-04-12T09:25:51;95742.00;;;18.40
56286;BMP180;42191;47.562;9.686;2023-04-12T09:28:28;95750.00;;;18.60
56286;BMP180;42191;47.562;9.686;2023-04-12T09:30:56;95739.00;;;18.70
56286;BMP180;42191;47.562;9.686;2023-04-12T09:33:39;95745.00;;;18.90
56286;BMP180;42191;47.562;9.686;2023-04-12T09:36:06;95753.00;;;19.00
56286;BMP180;42191;47.562;9.686;2023-04-12T09:38:38;95739.00;;;19.20
56286;BMP180;42191;47.562;9.686;2023-04-12T09:41:20;95746.00;;;19.40
56286;BMP180;42191;47.562;9.686;2023-04-12T09:43:47;95745.00;;;19.50
56286;BMP180;42191;47.562;9.686;2023-04-12T09:46:14;95745.00;;;19.70
56286;BMP180;42191;47.562;9.686;2023-04-12T09:48:51;95740.00;;;19.90
56286;BMP180;42191;47.562;9.686;2023-04-12T09:51:27;95742.00;;;20.10
56286;BMP180;42191;47.562;9.686;2023-04-12T09:54:02;95731.00;;;20.30
56286;BMP180;42191;47.562;9.686;2023-04-12T09:56:31;95737.00;;;20.50
56286;BMP180;42191;47.562;9.686;2023-04-12T09:59:04;95722.00;;;20.60
56286;BMP180;42191;47.562;9.686;2023-04-12T10:01:35;95730.00;;;20.80
56286;BMP180;42191;47.562;9.686;2023-04-12T10:04:02;95728.00;;;20.90
56286;BMP180;42191;47.562;9.686;2023-04-12T10:06:28;95726.00;;;21.00
56286;BMP180;42191;47.562;9.686;2023-04-12T10:08:55;95733.00;;;21.10
56286;BMP180;42191;47.562;9.686;2023-04-12T10:11:21;95728.00;;;21.20
56286;BMP180;42191;47.562;9.686;2023-04-12T10:13:49;95725.00;;;21.30
56286;BMP180;42191;47.562;9.686;2023-04-12T10:16:17;95721.00;;;21.50
56286;BMP180;42191;47.562;9.686;2023-04-12T10:18:45;95724.00;;;21.60
56286;BMP180;42191;47.562;9.686;2023-04-12T10:21:12;95730.00;;;21.80
56286;BMP180;42191;47.562;9.686;2023-04-12T10:23:38;95722.00;;;21.90
56286;BMP180;42191;47.562;9.686;2023-04-12T10:26:05;95720.00;;;22.10
56286;BMP180;42191;47.562;9.686;2023-04-12T10:28:31;95722.00;;;22.20
56286;BMP180;42191;47.562;9.686;2023-04-12T10:30:57;95718.00;;;22.30
56286;BMP180;42191;47.562;9.686;2023-04-12T10:33:28;95720.00;;;22.50
56286;BMP180;42191;47.562;9.686;2023-04-12T10:36:00;95730.00;;;22.60
56286;BMP180;42191;47.562;9.686;2023-04-12T10:38:28;95721.00;;;22.70
56286;BMP180;42191;47.562;9.686;2023-04-12T10:41:19;95725.00;;;22.90
56286;BMP180;42191;47.562;9.686;2023-04-12T10:43:46;95716.00;;;23.00
56286;BMP180;42191;47.562;9.686;2023-04-12T10:49:13;95715.00;;;23.10
56286;BMP180;42191;47.562;9.686;2023-04-12T10:56:51;95721.00;;;23.10
56286;BMP180;42191;47.562;9.686;2023-04-12T10:59:18;95717.00;;;23.10
56286;BMP180;42191;47.562;9.686;2023-04-12T11:02:14;95725.00;;;23.00
56286;BMP180;42191;47.562;9.686;2023-04-12T11:07:41;95717.00;;;22.90
56286;BMP180;42191;47.562;9.686;2023-04-12T11:10:15;95714.00;;;22.90
56286;BMP180;42191;47.562;9.686;2023-04-12T11:13:14;95716.00;;;22.90
56286;BMP180;42191;47.562;9.686;2023-04-12T11:15:33;95722.00;;;22.90
56286;BMP180;42191;47.562;9.686;2023-04-12T11:18:00;95729.00;;;22.90
56286;BMP180;42191;47.562;9.686;2023-04-12T11:20:30;95726.00;;;22.80
56286;BMP180;42191;47.562;9.686;2023-04-12T11:22:58;95714.00;;;22.80
56286;BMP180;42191;47.562;9.686;2023-04-12T11:25:25;95728.00;;;22.80
56286;BMP180;42191;47.562;9.686;2023-04-12T11:27:52;95723.00;;;22.90
56286;BMP180;42191;47.562;9.686;2023-04-12T11:30:20;95728.00;;;22.90
56286;BMP180;42191;47.562;9.686;2023-04-12T11:32:46;95728.00;;;22.90
56286;BMP180;42191;47.562;9.686;2023-04-12T11:35:14;95724.00;;;22.80
56286;BMP180;42191;47.562;9.686;2023-04-12T11:37:42;95719.00;;;22.70
56286;BMP180;42191;47.562;9.686;2023-04-12T11:40:08;95718.00;;;22.70
56286;BMP180;42191;47.562;9.686;2023-04-12T11:42:35;95711.00;;;22.60
56286;BMP180;42191;47.562;9.686;2023-04-12T11:45:04;95709.00;;;22.40
56286;BMP180;42191;47.562;9.686;2023-04-12T11:47:31;95703.00;;;22.30
56286;BMP180;42191;47.562;9.686;2023-04-12T11:49:58;95702.00;;;22.30
56286;BMP180;42191;47.562;9.686;2023-04-12T11:52:30;95707.00;;;22.20
56286;BMP180;42191;47.562;9.686;2023-04-12T11:54:59;95709.00;;;22.10
56286;BMP180;42191;47.562;9.686;2023-04-12T11:57:25;95711.00;;;22.00
56286;BMP180;42191;47.562;9.686;2023-04-12T11:59:56;95706.00;;;21.90
56286;BMP180;42191;47.562;9.686;2023-04-12T12:02:23;95715.00;;;21.90
56286;BMP180;42191;47.562;9.686;2023-04-12T12:04:50;95720.00;;;21.70
56286;BMP180;42191;47.562;9.686;2023-04-12T12:07:17;95722.00;;;21.60
56286;BMP180;42191;47.562;9.686;2023-04-12T12:09:45;95711.00;;;21.40
56286;BMP180;42191;47.562;9.686;2023-04-12T12:12:12;95721.00;;;21.40
56286;BMP180;42191;47.562;9.686;2023-04-12T12:14:39;95716.00;;;21.20
56286;BMP180;42191;47.562;9.686;2023-04-12T12:17:11;95702.00;;;21.10
56286;BMP180;42191;47.562;9.686;2023-04-12T12:19:39;95708.00;;;21.10
56286;BMP180;42191;47.562;9.686;2023-04-12T12:22:20;95707.00;;;21.10
56286;BMP180;42191;47.562;9.686;2023-04-12T12:24:54;95698.00;;;21.00
56286;BMP180;42191;47.562;9.686;2023-04-12T12:27:42;95697.00;;;20.90
56286;BMP180;42191;47.562;9.686;2023-04-12T12:30:15;95699.00;;;20.90
56286;BMP180;42191;47.562;9.686;2023-04-12T12:32:42;95691.00;;;20.80
56286;BMP180;42191;47.562;9.686;2023-04-12T12:35:11;95697.00;;;20.80
56286;BMP180;42191;47.562;9.686;2023-04-12T12:37:47;95702.00;;;20.80
56286;BMP180;42191;47.562;9.686;2023-04-12T12:40:13;95709.00;;;20.80
56286;BMP180;42191;47.562;9.686;2023-04-12T12:42:50;95701.00;;;20.70
56286;BMP180;42191;47.562;9.686;2023-04-12T12:45:18;95696.00;;;20.70
56286;BMP180;42191;47.562;9.686;2023-04-12T12:50:18;95700.00;;;20.60
56286;BMP180;42191;47.562;9.686;2023-04-12T12:52:45;95691.00;;;20.50
56286;BMP180;42191;47.562;9.686;2023-04-12T12:55:13;95691.00;;;20.50
56286;BMP180;42191;47.562;9.686;2023-04-12T12:57:41;95684.00;;;20.50
56286;BMP180;42191;47.562;9.686;2023-04-12T13:00:07;95678.00;;;20.50
56286;BMP180;42191;47.562;9.686;2023-04-12T13:02:35;95680.00;;;20.50
56286;BMP180;42191;47.562;9.686;2023-04-12T13:05:03;95683.00;;;20.50
56286;BMP180;42191;47.562;9.686;2023-04-12T13:07:29;95692.00;;;20.60
56286;BMP180;42191;47.562;9.686;2023-04-12T13:09:55;95693.00;;;20.60
56286;BMP180;42191;47.562;9.686;2023-04-12T13:12:21;95692.00;;;20.60
56286;BMP180;42191;47.562;9.686;2023-04-12T13:14:47;95693.00;;;20.50
56286;BMP180;42191;47.562;9.686;2023-04-12T13:17:14;95671.00;;;20.50
56286;BMP180;42191;47.562;9.686;2023-04-12T13:19:40;95680.00;;;20.40
56286;BMP180;42191;47.562;9.686;2023-04-12T13:22:07;95672.00;;;20.50
56286;BMP180;42191;47.562;9.686;2023-04-12T13:24:34;95667.00;;;20.50
56286;BMP180;42191;47.562;9.686;2023-04-12T13:27:00;95664.00;;;20.70
56286;BMP180;42191;47.562;9.686;2023-04-12T13:29:27;95663.00;;;20.80
56286;BMP180;42191;47.562;9.686;2023-04-12T13:31:53;95658.00;;;21.00
56286;BMP180;42191;47.562;9.686;2023-04-12T13:34:20;95666.00;;;21.10
56286;BMP180;42191;47.562;9.686;2023-04-12T13:36:47;95649.00;;;21.20
56286;BMP180;42191;47.562;9.686;2023-04-12T13:39:14;95657.00;;;21.30
56286;BMP180;42191;47.562;9.686;2023-04-12T13:41:40;95666.00;;;21.40
56286;BMP180;42191;47.562;9.686;2023-04-12T13:44:06;95648.00;;;21.50
56286;BMP180;42191;47.562;9.686;2023-04-12T13:46:32;95636.00;;;21.50
56286;BMP180;42191;47.562;9.686;2023-04-12T13:48:58;95652.00;;;21.60
56286;BMP180;42191;47.562;9.686;2023-04-12T13:51:24;95648.00;;;21.70
56286;BMP180;42191;47.562;9.686;2023-04-12T13:53:51;95642.00;;;21.80
56286;BMP180;42191;47.562;9.686;2023-04-12T13:56:18;95647.00;;;21.80
56286;BMP180;42191;47.562;9.686;2023-04-12T13:58:44;95647.00;;;21.90
56286;BMP180;42191;47.562;9.686;2023-04-12T14:01:10;95659.00;;;21.80
56286;BMP180;42191;47.562;9.686;2023-04-12T14:03:38;95654.00;;;21.70
56286;BMP180;42191;47.562;9.686;2023-04-12T14:06:05;95653.00;;;21.70
56286;BMP180;42191;47.562;9.686;2023-04-12T14:08:32;95641.00;;;21.60
56286;BMP180;42191;47.562;9.686;2023-04-12T14:10:58;95635.00;;;21.60
56286;BMP180;42191;47.562;9.686;2023-04-12T14:13:26;95637.00;;;21.60
56286;BMP180;42191;47.562;9.686;2023-04-12T14:15:53;95641.00;;;21.50
56286;BMP180;42191;47.562;9.686;2023-04-12T14:18:20;95638.00;;;21.40
56286;BMP180;42191;47.562;9.686;2023-04-12T14:20:50;95637.00;;;21.30
56286;BMP180;42191;47.562;9.686;2023-04-12T14:23:23;95638.00;;;21.20
56286;BMP180;42191;47.562;9.686;2023-04-12T14:25:52;95633.00;;;21.10
56286;BMP180;42191;47.562;9.686;2023-04-12T14:28:18;95637.00;;;21.10
56286;BMP180;42191;47.562;9.686;2023-04-12T14:30:49;95620.00;;;21.10
56286;BMP180;42191;47.562;9.686;2023-04-12T14:33:16;95629.00;;;21.10
56286;BMP180;42191;47.562;9.686;2023-04-12T14:35:42;95630.00;;;21.30
56286;BMP180;42191;47.562;9.686;2023-04-12T14:38:08;95625.00;;;21.40